Time;durP1;ratioP1;P1;durP2;ratioP2;P2;SDS_P1;SDS_P2;PMS_P1;PMS_P2;Temp;Humidity;BMP_temperature;BMP_pressure;BME280_temperature;BME280_humidity;BME280_pressure;Samples;Min_cycle;Max_cycle;Signal;HPM_P1;HPM_P2
2023/05/29 00:01:40;;;;;;;12.00;7.30;;;;;;;9.80;65.79;97369.31;108879;1250;94409;-75
2023/05/29 00:04:08;;;;;;;14.90;7.20;;;;;;;9.77;65.97;97370.73;108909;1250;94858;-73
2023/05/29 00:06:37;;;;;;;13.30;7.50;;;;;;;9.73;66.09;97367.74;108939;1250;102040;-74
2023/05/29 00:09:05;;;;;;;12.50;8.10;;;;;;;9.70;66.02;97369.60;108917;1250;102405;-73
2023/05/29 00:11:33;;;;;;;18.70;8.40;;;;;;;9.62;66.02;97365.98;108949;1250;99913;-75
2023/05/29 00:14:01;;;;;;;12.00;7.40;;;;;;;9.55;66.17;97362.95;108896;1250;94231;-73
2023/05/29 00:16:31;;;;;;;12.50;7.20;;;;;;;9.52;66.22;97363.10;108922;1250;94694;-75
2023/05/29 00:18:59;;;;;;;14.50;7.00;;;;;;;9.49;66.37;97361.34;109027;1249;102227;-73
2023/05/29 00:21:27;;;;;;;14.20;8.00;;;;;;;9.47;66.33;97363.70;108692;1249;101608;-74
2023/05/29 00:23:55;;;;;;;13.00;7.80;;;;;;;9.44;66.35;97358.09;108979;1249;100194;-72
2023/05/29 00:26:23;;;;;;;11.90;7.60;;;;;;;9.40;66.40;97357.89;109016;1249;94461;-75
2023/05/29 00:28:51;;;;;;;9.50;6.50;;;;;;;9.38;66.51;97355.61;109006;1249;94710;-73
2023/05/29 00:31:19;;;;;;;14.40;7.00;;;;;;;9.36;66.60;97357.51;109035;1249;102478;-72
2023/05/29 00:33:47;;;;;;;12.50;7.00;;;;;;;9.34;66.55;97357.29;109029;1249;101609;-73
2023/05/29 00:36:16;;;;;;;10.00;6.10;;;;;;;9.32;66.64;97360.06;108794;1249;99665;-72
2023/05/29 00:38:44;;;;;;;11.70;6.90;;;;;;;9.29;66.72;97362.27;108715;1251;94352;-73
2023/05/29 00:41:16;;;;;;;9.60;6.50;;;;;;;9.25;66.70;97359.85;108636;1249;94480;-73
2023/05/29 00:43:44;;;;;;;;;;;;;;;9.22;66.69;97357.02;109059;1249;102355;-75
2023/05/29 00:46:14;;;;;;;;;;;;;;;9.17;66.79;97352.66;109073;1250;101240;-72
2023/05/29 00:48:43;;;;;;;;;;;;;;;9.11;66.94;97352.27;109008;1249;100001;-73
2023/05/29 00:51:13;;;;;;;;;;;;;;;9.05;67.04;97354.99;108995;1249;94162;-72
2023/05/29 00:53:41;;;;;;;;;;;;;;;9.00;67.17;97352.27;109032;1249;95124;-73
2023/05/29 00:56:10;;;;;;;;;;;;;;;8.96;67.28;97353.20;109060;1249;102251;-75
2023/05/29 00:58:38;;;;;;;;;;;;;;;8.91;67.32;97354.20;109054;1249;100087;-75
2023/05/29 01:01:06;;;;;;;;;;;;;;;8.82;67.57;97351.08;108830;1249;100029;-73
2023/05/29 01:03:35;;;;;;;;;;;;;;;8.79;67.68;97350.45;109000;1249;94221;-73
2023/05/29 01:06:03;;;;;;;;;;;;;;;8.76;67.87;97350.42;109052;1249;94293;-73
2023/05/29 01:08:31;;;;;;;;;;;;;;;8.75;67.85;97351.90;109036;1249;102637;-73
2023/05/29 01:11:04;;;;;;;;;;;;;;;8.74;67.86;97349.70;108968;1249;101430;-74
2023/05/29 01:13:35;;;;;;;;;;;;;;;8.72;67.85;97350.98;109018;1249;100108;-72
2023/05/29 01:16:06;;;;;;;;;;;;;;;8.70;67.79;97351.30;109052;1249;94430;-73
2023/05/29 01:18:46;;;;;;;;;;;;;;;8.66;67.71;97350.27;109034;1249;94268;-73
2023/05/29 01:21:32;;;;;;;;;;;;;;;8.63;67.79;97350.48;109028;1249;102137;-73
2023/05/29 01:24:24;;;;;;;;;;;;;;;8.61;67.89;97351.72;109043;1250;101746;-75
2023/05/29 01:26:52;;;;;;;;;;;;;;;8.53;67.87;97357.05;108345;1256;100097;-72
2023/05/29 01:29:22;;;;;;;;;;;;;;;8.49;68.08;97356.20;108360;1257;94289;-74
2023/05/29 01:31:51;;;;;;;;;;;;;;;8.47;68.05;97353.59;108379;1256;94363;-74
2023/05/29 01:34:19;;;;;;;;;;;;;;;8.44;67.97;97351.77;108342;1256;102590;-73
2023/05/29 01:36:47;;;;;;;;;;;;;;;8.41;67.96;97349.15;108315;1257;101343;-72
2023/05/29 01:39:15;;;;;;;;;;;;;;;8.38;68.10;97344.98;108142;1256;99588;-74
2023/05/29 01:41:45;;;;;;;;;;;;;;;8.36;68.24;97344.30;108353;1256;94380;-75
2023/05/29 01:44:13;;;;;;;;;;;;;;;8.33;68.35;97346.08;108368;1257;94357;-73
2023/05/29 01:46:42;;;;;;;;;;;;;;;8.29;68.44;97351.03;108240;1256;101826;-73
2023/05/29 01:49:12;;;;;;;;;;;;;;;8.27;68.56;97356.20;108360;1256;101252;-73
2023/05/29 01:51:42;;;;;;;;;;;;;;;8.29;68.55;97351.70;108264;1257;99914;-76
2023/05/29 01:54:11;;;;;;;;;;;;;;;8.29;68.52;97349.91;108351;1256;94342;-72
2023/05/29 01:56:39;;;;;;;;;;;;;;;8.28;68.53;97347.55;108376;1256;94415;-73
2023/05/29 01:59:07;;;;;;;;;;;;;;;8.25;68.46;97345.08;108377;1256;102621;-73
2023/05/29 02:01:35;;;;;;;;;;;;;;;8.19;68.50;97342.37;108404;1256;101340;-74
2023/05/29 02:04:03;;;;;;;;;;;;;;;8.16;68.44;97340.33;108543;1249;99986;-72
2023/05/29 02:06:33;;;;;;;;;;;;;;;8.14;68.48;97339.31;108988;1249;94169;-72
2023/05/29 02:09:01;;;;;;;;;;;;;;;8.11;68.50;97340.94;108721;1251;94303;-74
2023/05/29 02:11:28;;;;;;;;;;;;;;;8.08;68.45;97344.45;109058;1249;101322;-73
2023/05/29 02:13:57;;;;;;;;;;;;;;;8.02;68.44;97342.47;109059;1250;101845;-73
2023/05/29 02:16:27;;;;;;;;;;;;;;;7.97;68.63;97343.70;109038;1249;99019;-73
2023/05/29 02:18:55;;;;;;;;;;;;;;;7.92;68.67;97339.17;109012;1249;94258;-72
2023/05/29 02:21:23;;;;;;;;;;;;;;;7.89;68.72;97339.44;109006;1249;94353;-75
2023/05/29 02:23:51;;;;;;;;;;;;;;;7.88;68.85;97338.72;108749;1250;101396;-72
2023/05/29 02:26:19;;;;;;;;;;;;;;;7.87;68.74;97334.20;109031;1250;101219;-73
2023/05/29 02:28:47;;;;;;;;;;;;;;;7.84;68.71;97330.11;108673;1249;99519;-73
2023/05/29 02:31:15;;;;;;;;;;;;;;;7.81;68.72;97329.79;109020;1249;94429;-73
2023/05/29 02:33:43;;;;;;;;;;;;;;;7.80;68.74;97329.45;109087;1249;95057;-75
2023/05/29 02:36:11;;;;;;;;;;;;;;;7.75;68.78;97327.96;108739;1249;102582;-73
2023/05/29 02:38:39;;;;;;;;;;;;;;;7.71;68.81;97326.46;108942;1250;101516;-73
2023/05/29 02:41:07;;;;;;;;;;;;;;;7.65;68.92;97328.67;108992;1249;100017;-73
2023/05/29 02:43:35;;;;;;;;;;;;;;;7.63;69.07;97331.95;109000;1249;94276;-73
2023/05/29 02:46:03;;;;;;;;;;;;;;;7.63;69.06;97334.34;109068;1249;94265;-73
2023/05/29 02:48:31;;;;;;;;;;;;;;;7.62;69.12;97335.49;109053;1249;102034;-72
2023/05/29 02:50:59;;;;;;;;;;;;;;;7.61;69.13;97336.38;109069;1249;101838;-75
2023/05/29 02:53:27;;;;;;;;;;;;;;;7.59;69.15;97337.77;109044;1249;99853;-72
2023/05/29 02:55:55;;;;;;;;;;;;;;;7.57;69.21;97336.06;109036;1249;94205;-73
2023/05/29 02:58:22;;;;;;;;;;;;;;;7.56;69.33;97331.91;109027;1249;94318;-73
2023/05/29 03:00:52;;;;;;;;;;;;;;;7.55;69.34;97325.17;109031;1249;102359;-73
2023/05/29 03:03:20;;;;;;;;;;;;;;;7.55;69.50;97327.33;109060;1249;101148;-72
2023/05/29 03:05:48;;;;;;;;;;;;;;;7.55;69.49;97330.62;108989;1249;100193;-73
2023/05/29 03:08:16;;;;;;;;;;;;;;;7.52;69.49;97325.23;108722;1250;95750;-73
2023/05/29 03:10:44;;;;;;;;;;;;;;;7.50;69.59;97327.43;109037;1249;95606;-73
2023/05/29 03:13:12;;;;;;;;;;;;;;;7.49;69.62;97335.27;108989;1249;103511;-73
2023/05/29 03:15:40;;;;;;;;;;;;;;;7.44;69.67;97338.09;109038;1249;100992;-72
2023/05/29 03:18:08;;;;;;;;;;;;;;;7.40;69.90;97341.98;108999;1249;99998;-73
2023/05/29 03:20:36;;;;;;;;;;;;;;;7.41;70.04;97337.23;108967;1249;95541;-73
2023/05/29 03:23:04;;;;;;;;;;;;;;;7.44;70.04;97336.31;109025;1250;96242;-73
2023/05/29 03:25:32;;;;;;;;;;;;;;;7.46;70.00;97333.04;109030;1249;103678;-74
2023/05/29 03:28:00;;;;;;;;;;;;;;;7.47;69.99;97334.45;109037;1249;101234;-73
2023/05/29 03:30:28;;;;;;;;;;;;;;;7.50;70.11;97331.77;108967;1249;99495;-72
2023/05/29 03:32:56;;;;;;;;;;;;;;;7.53;70.15;97333.46;108748;1249;96143;-73
2023/05/29 03:35:24;;;;;;;;;;;;;;;7.57;70.09;97334.31;108780;1249;95666;-73
2023/05/29 03:37:52;;;;;;;;;;;;;;;7.60;70.14;97337.73;109057;1249;104134;-73
2023/05/29 03:40:20;;;;;;;;;;;;;;;7.63;70.15;97332.13;109001;1250;101278;-73
2023/05/29 03:42:48;;;;;;;;;;;;;;;7.67;70.19;97332.58;109002;1249;100405;-73
2023/05/29 03:45:16;;;;;;;;;;;;;;;7.70;70.21;97332.55;108995;1249;95563;-73
2023/05/29 03:47:44;;;;;;;;;;;;;;;7.72;70.12;97335.15;108991;1249;95619;-73
2023/05/29 03:50:14;;;;;;;;;;;;;;;7.75;70.26;97334.78;109028;1249;103554;-73
2023/05/29 03:52:43;;;;;;;;;;;;;;;7.78;70.30;97332.70;109032;1249;101264;-74
2023/05/29 03:55:14;;;;;;;;;;;;;;;7.82;70.31;97336.54;109048;1249;100020;-73
2023/05/29 03:57:42;;;;;;;;;;;;;;;7.85;70.33;97336.23;108955;1250;95824;-74
2023/05/29 04:00:11;;;;;;;;;;;;;;;7.90;70.31;97339.23;108636;1249;95713;-72
2023/05/29 04:02:39;;;;;;;;;;;;;;;7.94;70.30;97338.73;109034;1249;103143;-72
2023/05/29 04:05:08;;;;;;;;;;;;;;;7.98;70.34;97338.00;109028;1249;101309;-73
2023/05/29 04:07:38;;;;;;;;;;;;;;;8.03;70.44;97337.80;108716;1249;99838;-74
2023/05/29 04:10:07;;;;;;;;;;;;;;;8.06;70.38;97334.14;109005;1249;95567;-73
2023/05/29 04:12:35;;;;;;;;;;;;;;;8.09;70.44;97337.29;109023;1249;96548;-75
2023/05/29 04:15:03;;;;;;;;;;;;;;;8.14;70.52;97337.29;109029;1249;103242;-75
2023/05/29 04:17:31;;;;;;;;;;;;;;;8.21;70.51;97338.83;108838;1249;101368;-75
2023/05/29 04:20:03;;;;;;;;;;;;;;;8.24;70.53;97343.05;108973;1249;100116;-75
2023/05/29 04:22:31;;;;;;;;;;;;;;;8.27;70.57;97343.83;108989;1249;95825;-75
2023/05/29 04:24:59;;;;;;;;;;;;;;;8.33;70.60;97343.59;109028;1249;96449;-74
2023/05/29 04:27:27;;;;;;;;;;;;;;;8.37;70.65;97344.11;108742;1249;103460;-74
2023/05/29 04:29:55;;;;;;;;;;;;;;;8.40;70.76;97347.98;109038;1249;101445;-75
2023/05/29 04:32:23;;;;;;;;;;;;;;;8.44;70.81;97349.00;108657;1249;101374;-75
2023/05/29 04:34:52;;;;;;;;;;;;;;;8.47;70.79;97351.98;108913;1250;95759;-74
2023/05/29 04:37:21;;;;;;;;;;;;;;;8.53;70.90;97354.21;109000;1249;95562;-74
2023/05/29 04:39:51;;;;;;;;;;;;;;;8.59;70.93;97346.74;109035;1249;103583;-74
2023/05/29 04:42:19;;;;;;;;;;;;;;;8.65;70.89;97347.77;109009;1249;101446;-75
2023/05/29 04:44:47;;;;;;;;;;;;;;;8.72;70.83;97346.30;109000;1249;99953;-73
2023/05/29 04:47:15;;;;;;;;;;;;;;;8.80;70.84;97345.30;108937;1249;95558;-72
2023/05/29 04:49:48;;;;;;;;;;;;;;;8.87;70.83;97347.60;109023;1249;95700;-72
2023/05/29 04:52:16;;;;;;;;;;;;;;;8.93;70.96;97342.89;109008;1249;103696;-72
2023/05/29 04:54:44;;;;;;;;;;;;;;;8.99;70.89;97341.27;109033;1249;101476;-73
2023/05/29 04:57:12;;;;;;;;;;;;;;;9.04;70.96;97342.45;108991;1249;100292;-74
2023/05/29 04:59:40;;;;;;;;;;;;;;;9.09;70.84;97339.42;108963;1249;95665;-72
2023/05/29 05:02:08;;;;;;;;;;;;;;;9.16;70.77;97340.34;109022;1249;95573;-72
2023/05/29 05:04:36;;;;;;;;;;;;;;;9.23;70.69;97343.80;108999;1249;103712;-73
2023/05/29 05:07:06;;;;;;;;;;;;;;;9.30;70.78;97338.73;108673;1249;101052;-72
2023/05/29 05:09:34;;;;;;;;;;;;;;;9.40;70.76;97339.98;108975;1250;99687;-73
2023/05/29 05:12:02;;;;;;;;;;;;;;;9.50;70.80;97337.71;108956;1249;95518;-72
2023/05/29 05:14:30;;;;;;;;;;;;;;;9.59;70.85;97333.53;109024;1249;95661;-72
2023/05/29 05:16:58;;;;;;;;;;;;;;;9.70;70.77;97334.90;109004;1249;103732;-74
2023/05/29 05:19:26;;;;;;;;;;;;;;;9.82;70.88;97331.74;109013;1249;101164;-72
2023/05/29 05:21:54;;;;;;;;;;;;;;;9.92;70.64;97326.75;108963;1249;99056;-73
2023/05/29 05:24:22;;;;;;;;;;;;;;;10.01;70.47;97330.52;108961;1249;95552;-72
2023/05/29 05:26:50;;;;;;;;;;;;;;;10.13;70.46;97329.44;109038;1249;95688;-73
2023/05/29 05:29:18;;;;;;;;;;;;;;;10.25;70.29;97327.64;109005;1249;103427;-72
2023/05/29 05:31:46;;;;;;;;;;;;;;;10.36;70.18;97329.27;109000;1249;101697;-71
2023/05/29 05:34:14;;;;;;;;;;;;;;;10.47;70.01;97332.86;108959;1249;99091;-74
2023/05/29 05:36:42;;;;;;;;;;;;;;;10.56;69.74;97331.70;108969;1250;95641;-72
2023/05/29 05:39:11;;;;;;;;;;;;;;;10.66;69.77;97333.88;108747;1249;95672;-72
2023/05/29 05:41:39;;;;;;;;;;;;;;;10.78;69.43;97330.66;109027;1249;103234;-73
2023/05/29 05:44:07;;;;;;;;;;;;;;;10.89;69.18;97328.83;109024;1249;101417;-74
2023/05/29 05:46:35;;;;;;;;;;;;;;;11.02;69.05;97329.67;108989;1249;99596;-72
2023/05/29 05:49:03;;;;;;;;;;;;;;;11.14;68.92;97325.95;108686;1249;95608;-72
2023/05/29 05:51:31;;;;;;;;;;;;;;;11.27;68.72;97321.55;108672;1249;96049;-73
2023/05/29 05:53:59;;;;;;;;;;;;;;;11.38;68.39;97322.39;108999;1249;103486;-73
2023/05/29 05:56:27;;;;;;;;;;;;;;;11.49;68.23;97320.15;108650;1249;100085;-72
2023/05/29 05:58:56;;;;;;;;;;;;;;;11.60;68.14;97317.87;108976;1249;100052;-73
2023/05/29 06:01:24;;;;;;;;;;;;;;;11.71;67.94;97317.91;108985;1250;95556;-73
2023/05/29 06:03:52;;;;;;;;;;;;;;;11.81;67.62;97315.31;109033;1249;95664;-72
2023/05/29 06:06:20;;;;;;;;;;;;;;;11.93;67.39;97316.88;109007;1250;103530;-74
2023/05/29 06:08:48;;;;;;;;;;;;;;;12.04;67.44;97319.40;109016;1249;101293;-74
2023/05/29 06:11:17;;;;;;;;;;;;;;;12.15;67.06;97318.91;108758;1249;100182;-73
2023/05/29 06:13:45;;;;;;;;;;;;;;;12.26;66.68;97323.38;108989;1250;95610;-73
2023/05/29 06:16:15;;;;;;;;;;;;;;;12.38;66.39;97324.02;108947;1250;95596;-74
2023/05/29 06:18:44;;;;;;;;;;;;;;;12.49;65.89;97323.35;109000;1250;103515;-73
2023/05/29 06:21:13;;;;;;;;;;;;;;;12.61;65.49;97322.38;108927;1253;101658;-73
2023/05/29 06:23:41;;;;;;;;;;;;;;;12.72;65.22;97319.55;108933;1249;100351;-73
2023/05/29 06:26:09;;;;;;;;;;;;;;;12.82;65.22;97322.88;108949;1250;95509;-73
2023/05/29 06:28:37;;;;;;;;;;;;;;;12.94;64.85;97326.80;108977;1249;95711;-73
2023/05/29 06:31:06;;;;;;;;;;;;;;;13.05;64.58;97332.36;109063;1249;103492;-73
2023/05/29 06:33:34;;;;;;;;;;;;;;;13.16;64.54;97329.44;109007;1249;101207;-73
2023/05/29 06:36:02;;;;;;;;;;;;;;;13.29;64.32;97326.48;108995;1249;100270;-73
2023/05/29 06:38:30;;;;;;;;;;;;;;;13.40;64.06;97327.33;108964;1249;95638;-73
2023/05/29 06:40:58;;;;;;;;;;;;;;;13.53;64.00;97325.13;109021;1249;96492;-74
2023/05/29 06:43:26;;;;;;;;;;;;;;;13.67;63.52;97323.63;108768;1249;103615;-72
2023/05/29 06:45:54;;;;;;;;;;;;;;;13.77;62.93;97323.29;109033;1250;100400;-73
2023/05/29 06:48:22;;;;;;;;;;;;;;;13.87;62.92;97320.82;108775;1249;98425;-74
2023/05/29 06:50:50;;;;;;;;;;;;;;;14.00;62.85;97321.23;108995;1249;95558;-75
2023/05/29 06:53:18;;;;;;;;;;;;;;;14.12;62.54;97320.98;109015;1249;95668;-73
2023/05/29 06:55:46;;;;;;;;;;;;;;;14.24;62.57;97325.70;109003;1249;103377;-73
2023/05/29 06:58:14;;;;;;;;;;;;;;;14.38;62.73;97326.58;109006;1249;101065;-73
2023/05/29 07:00:42;;;;;;;;;;;;;;;14.52;62.89;97327.41;108994;1249;99875;-73
2023/05/29 07:03:10;;;;;;;;;;;;;;;14.67;62.80;97329.85;108974;1249;95501;-75
2023/05/29 07:05:38;;;;;;;;;;;;;;;14.82;62.87;97333.32;109000;1250;95604;-73
2023/05/29 07:08:07;;;;;;;;;;;;;;;14.96;62.50;97335.40;109032;1250;103512;-72
2023/05/29 07:10:35;;;;;;;;;;;;;;;15.09;62.18;97335.83;109011;1250;101255;-74
2023/05/29 07:13:03;;;;;;;;;;;;;;;15.23;62.38;97334.74;108940;1249;100151;-73
2023/05/29 07:15:31;;;;;;;;;;;;;;;15.37;62.29;97336.77;108946;1249;95590;-73
2023/05/29 07:17:59;;;;;;;;;;;;;;;15.52;61.89;97335.90;108997;1250;95591;-75
2023/05/29 07:20:27;;;;;;;;;;;;;;;15.64;60.48;97334.95;108982;1250;103541;-73
2023/05/29 07:22:55;;;;;;;;;;;;;;;15.76;60.64;97331.39;108993;1249;101269;-74
2023/05/29 07:25:23;;;;;;;;;;;;;;;15.90;60.80;97325.80;108743;1249;99579;-73
2023/05/29 07:27:51;;;;;;;;;;;;;;;16.02;60.40;97328.73;108993;1250;95854;-74
2023/05/29 07:30:19;;;;;;;;;;;;;;;16.16;60.13;97329.54;109027;1249;95632;-73
2023/05/29 07:32:47;;;;;;;;;;;;;;;16.31;59.05;97329.71;109009;1249;103527;-73
2023/05/29 07:35:15;;;;;;;;;;;;;;;16.44;58.80;97326.76;108999;1249;101290;-73
2023/05/29 07:37:43;;;;;;;;;;;;;;;16.56;59.01;97321.75;108972;1249;100114;-74
2023/05/29 07:40:11;;;;;;;;;;;;;;;16.71;59.09;97324.93;108969;1249;95513;-74
2023/05/29 07:42:39;;;;;;;;;;;;;;;16.87;58.50;97324.60;109002;1249;95551;-74
2023/05/29 07:45:08;;;;;;;;;;;;;;;17.03;58.07;97323.16;109014;1250;103409;-73
2023/05/29 07:47:35;;;;;;;;;;;;;;;17.20;57.97;97323.46;109002;1249;101587;-73
2023/05/29 07:50:04;;;;;;;;;;;;;;;17.45;57.95;97321.23;108914;1249;98958;-73
2023/05/29 07:52:31;;;;;;;;;;;;;;;17.76;57.19;97322.05;108971;1249;95577;-74
2023/05/29 07:55:01;;;;;;;;;;;;;;;18.09;56.58;97318.29;108979;1249;95629;-74
2023/05/29 07:57:30;;;;;;;;;;;;;;;18.44;56.26;97317.58;109023;1250;102867;-73
2023/05/29 07:59:58;;;;;;;;;;;;;;;18.81;56.35;97318.14;108971;1249;100452;-75
2023/05/29 08:02:26;;;;;;;;;;;;;;;19.18;56.44;97320.14;108981;1250;99970;-74
2023/05/29 08:04:54;;;;;;;;;;;;;;;19.52;56.39;97317.37;108847;1249;95618;-74
2023/05/29 08:07:22;;;;;;;;;;;;;;;19.82;55.65;97317.59;109003;1250;95573;-77
2023/05/29 08:09:50;;;;;;;;;;;;;;;20.13;55.20;97313.27;109042;1249;103826;-74
2023/05/29 08:12:18;;;;;;;;;;;;;;;20.43;54.86;97309.88;108973;1250;101193;-75
2023/05/29 08:14:46;;;;;;;;;;;;;;;20.69;54.17;97310.27;108985;1249;99869;-75
2023/05/29 08:17:14;;;;;;;;;;;;;;;20.86;54.01;97310.00;108978;1250;95564;-74
2023/05/29 08:19:42;;;;;;;;;;;;;;;21.01;53.93;97310.11;108997;1250;95561;-74
2023/05/29 08:22:13;;;;;;;;;;;;;;;21.21;53.06;97312.52;108814;1250;103833;-75
2023/05/29 08:24:41;;;;;;;;;;;;;;;21.44;52.38;97312.63;108944;1250;101551;-75
2023/05/29 08:27:09;;;;;;;;;;;;;;;21.67;51.85;97312.43;108964;1249;99510;-75
2023/05/29 08:29:38;;;;;;;;;;;;;;;21.91;51.36;97313.75;108952;1249;95775;-74
2023/05/29 08:32:06;;;;;;;;;;;;;;;22.15;50.91;97310.77;109011;1249;95617;-76
2023/05/29 08:34:34;;;;;;;;;;;;;;;22.37;51.44;97309.59;109006;1249;103193;-75
2023/05/29 08:37:02;;;;;;;;;;;;;;;22.62;51.12;97309.35;108989;1250;101504;-75
2023/05/29 08:39:30;;;;;;;;;;;;;;;22.79;50.07;97309.14;108995;1249;99996;-76
2023/05/29 08:42:28;;;;;;;;;;;;;;;23.05;49.90;97307.30;108766;1250;95585;-75
2023/05/29 08:44:58;;;;;;;;;;;;;;;23.39;48.99;97311.11;108347;1256;95646;-75
2023/05/29 08:47:27;;;;;;;;;;;;;;;23.63;48.73;97314.78;108312;1256;103239;-77
2023/05/29 08:49:55;;;;;;;;;;;;;;;23.93;48.46;97320.13;108258;1256;101044;-75
2023/05/29 08:52:24;;;;;;;;;;;;;;;24.22;47.92;97317.73;108369;1256;100158;-75
2023/05/29 08:54:53;;;;;;;;;;;;;;;24.45;47.56;97315.05;108315;1256;96014;-75
2023/05/29 08:57:24;;;;;;;;;;;;;;;24.74;47.21;97312.75;108321;1256;95751;-78
2023/05/29 08:59:53;;;;;;;;;;;;;;;25.08;46.46;97309.70;108338;1257;103379;-75
2023/05/29 09:02:21;;;;;;;;;;;;;;;25.39;46.03;97311.48;108219;1256;101424;-75
2023/05/29 09:04:49;;;;;;;;;;;;;;;25.71;45.99;97308.90;108322;1256;99845;-74
2023/05/29 09:07:18;;;;;;;;;;;;;;;25.98;45.30;97307.00;108293;1256;95627;-78
2023/05/29 09:09:47;;;;;;;;;;;;;;;26.23;44.67;97303.55;108385;1256;95682;-75
2023/05/29 09:12:16;;;;;;;;;;;;;;;26.47;44.42;97301.45;108343;1260;103532;-75
2023/05/29 09:14:46;;;;;;;;;;;;;;;26.73;43.86;97300.98;108324;1256;101580;-73
2023/05/29 09:17:15;;;;;;;;;;;;;;;27.01;43.66;97301.13;108330;1256;98788;-72
2023/05/29 09:19:43;;;;;;;;;;;;;;;27.28;43.03;97298.75;108320;1256;95624;-75
2023/05/29 09:22:14;;;;;;;;;;;;;;;27.50;42.03;97297.41;108713;1250;95617;-74
2023/05/29 09:24:43;;;;;;;;;;;;;;;27.64;41.60;97298.04;109041;1249;103404;-73
2023/05/29 09:27:12;;;;;;;;;;;;;;;27.74;41.54;97296.48;109011;1250;101088;-73
2023/05/29 09:29:40;;;;;;;;;;;;;;;27.88;41.06;97292.67;109023;1249;99464;-74
2023/05/29 09:32:12;;;;;;;;;;;;;;;28.02;40.46;97294.86;109003;1249;95542;-73
2023/05/29 09:34:40;;;;;;;;;;;;;;;28.13;40.44;97297.08;108825;1249;95983;-73
2023/05/29 09:37:09;;;;;;;;;;;;;;;28.21;40.52;97291.39;108764;1252;103072;-74
2023/05/29 09:39:44;;;;;;;;;;;;;;;28.23;39.82;97291.00;108797;1251;100324;-73
2023/05/29 09:42:12;;;;;;;;;;;;;;;28.18;39.88;97292.52;108817;1251;98882;-72
2023/05/29 09:44:44;;;;;;;;;;;;;;;28.23;39.78;97293.23;108783;1251;95505;-74
2023/05/29 09:47:17;;;;;;;;;;;;;;;28.16;39.42;97293.92;108866;1251;95628;-73
2023/05/29 09:49:46;;;;;;;;;;;;;;;28.08;39.64;97296.92;108857;1251;103481;-73
2023/05/29 09:52:15;;;;;;;;;;;;;;;28.08;39.86;97299.56;108681;1251;225789;-72
2023/05/29 09:54:46;;;;;;;;;;;;;;;28.10;39.78;97296.56;108782;1251;98966;-73
2023/05/29 09:57:15;;;;;;;;;;;;;;;28.14;39.46;97294.42;108815;1251;95550;-73
2023/05/29 09:59:48;;;;;;;;;;;;;;;28.15;38.95;97295.34;108790;1251;95591;-73
2023/05/29 10:02:16;;;;;;;;;;;;;;;28.15;38.78;97296.78;108843;1251;103280;-72
2023/05/29 10:04:45;;;;;;;;;;;;;;;28.15;39.05;97297.66;108774;1253;101294;-73
2023/05/29 10:07:26;;;;;;;;;;;;;;;28.19;38.50;97296.12;108779;1251;99770;-73
2023/05/29 10:10:00;;;;;;;;;;;;;;;28.21;38.17;97298.35;108806;1252;95608;-73
2023/05/29 10:12:28;;;;;;;;;;;;;;;28.18;37.81;97301.76;108885;1251;95639;-73
2023/05/29 10:14:58;;;;;;;;;;;;;;;28.13;37.76;97301.23;108829;1251;103238;-74
2023/05/29 10:17:36;;;;;;;;;;;;;;;28.15;38.46;97299.30;108846;1251;109466;-72
2023/05/29 10:20:06;;;;;;;;;;;;;;;28.21;38.48;97298.12;108778;1251;99844;-73
2023/05/29 10:22:36;;;;;;;;;;;;;;;28.29;38.37;97297.39;108798;1252;95587;-73
2023/05/29 10:25:04;;;;;;;;;;;;;;;28.31;37.99;97297.55;108676;1253;95699;-73
2023/05/29 10:27:32;;;;;;;;;;;;;;;28.32;38.18;97297.20;108828;1251;103712;-73
2023/05/29 10:30:03;;;;;;;;;;;;;;;28.36;38.38;97298.95;108803;1251;101292;-73
2023/05/29 10:32:37;;;;;;;;;;;;;;;28.36;38.10;97296.46;108803;1251;100150;-74
2023/05/29 10:35:18;;;;;;;;;;;;;;;28.28;37.80;97296.67;108770;1253;95782;-72
2023/05/29 10:37:46;;;;;;;;;;;;;;;28.21;37.66;97293.84;108883;1249;96098;-72
2023/05/29 10:40:14;;;;;;;;;;;;;;;28.19;37.88;97298.74;108963;1249;103525;-74
2023/05/29 10:42:43;;;;;;;;;;;;;;;28.18;37.77;97296.64;108963;1251;109644;-74
2023/05/29 10:45:11;;;;;;;;;;;;;;;28.15;37.59;97296.33;108993;1250;99912;-73
2023/05/29 10:47:40;;;;;;;;;;;;;;;28.09;37.67;97297.70;108973;1250;95905;-75
2023/05/29 10:50:08;;;;;;;;;;;;;;;28.03;37.94;97296.61;109035;1249;95718;-74
2023/05/29 10:52:36;;;;;;;;;;;;;;;28.03;38.40;97294.30;109049;1249;103337;-77
2023/05/29 10:55:05;;;;;;;;;;;;;;;27.99;37.71;97294.45;109004;1250;101403;-74
2023/05/29 10:57:36;;;;;;;;;;;;;;;27.96;37.67;97293.23;108982;1249;99908;-73
2023/05/29 11:00:11;;;;;;;;;;;;;;;27.96;38.21;97290.46;108985;1250;95574;-75
2023/05/29 11:02:40;;;;;;;;;;;;;;;27.94;38.21;97288.86;109074;1249;95649;-75
2023/05/29 11:05:21;;;;;;;;;;;;;;;27.89;37.47;97287.11;109023;1250;103555;-74
2023/05/29 11:07:54;;;;;;;;;;;;;;;27.84;37.44;97288.96;108978;1249;101776;-73
2023/05/29 11:10:41;;;;;;;;;;;;;;;27.87;38.07;97286.62;108976;1249;98966;-74
2023/05/29 11:13:09;;;;;;;;;;;;;;;27.92;37.86;97284.39;108792;1257;95645;-73
2023/05/29 11:15:40;;;;;;;;;;;;;;;27.93;37.86;97284.19;109022;1250;95668;-74
2023/05/29 11:18:08;;;;;;;;;;;;;;;27.95;37.94;97285.27;109047;1250;103529;-74
2023/05/29 11:20:37;;;;;;;;;;;;;;;27.98;37.59;97285.27;108818;1251;101374;-75
2023/05/29 11:23:08;;;;;;;;;;;;;;;27.92;37.50;97283.90;108943;1249;99593;-74
2023/05/29 11:25:37;;;;;;;;;;;;;;;27.87;37.35;97281.02;108997;1250;95655;-76
2023/05/29 11:28:08;;;;;;;;;;;;;;;27.90;37.64;97281.19;109016;1250;95704;-75
2023/05/29 11:30:43;;;;;;;;;;;;;;;27.86;37.38;97281.32;109029;1249;103529;-74
2023/05/29 11:33:17;;;;;;;;;;;;;;;27.79;36.96;97278.86;108993;1249;110988;-74
2023/05/29 11:35:46;;;;;;;;;;;;;;;27.71;36.94;97277.86;109029;1250;99857;-73
2023/05/29 11:38:16;;;;;;;;;;;;;;;27.66;37.16;97274.91;109012;1249;95742;-74
2023/05/29 11:40:44;;;;;;;;;;;;;;;27.68;36.87;97277.23;109033;1249;95627;-74
2023/05/29 11:43:13;;;;;;;;;;;;;;;27.73;37.01;97274.53;109001;1250;111790;-73
2023/05/29 11:45:42;;;;;;;;;;;;;;;27.77;37.25;97274.44;109013;1249;101206;-75
2023/05/29 11:48:10;;;;;;;;;;;;;;;27.75;36.83;97274.41;108802;1250;99046;-73
2023/05/29 11:50:38;;;;;;;;;;;;;;;27.71;36.64;97271.04;109001;1250;95935;-74
2023/05/29 11:53:07;;;;;;;;;;;;;;;27.70;36.24;97269.23;108999;1250;95567;-73
2023/05/29 11:55:35;;;;;;;;;;;;;;;27.72;36.61;97266.17;109033;1249;103484;-73
2023/05/29 11:58:05;;;;;;;;;;;;;;;27.76;36.80;97266.48;109034;1249;101381;-72
2023/05/29 12:00:34;;;;;;;;;;;;;;;27.81;36.72;97264.61;108979;1251;99982;-73
2023/05/29 12:03:04;;;;;;;;;;;;;;;27.81;36.32;97262.81;109003;1250;95652;-73
2023/05/29 12:05:33;;;;;;;;;;;;;;;27.77;36.09;97262.37;109003;1253;96549;-74
2023/05/29 12:08:04;;;;;;;;;;;;;;;27.73;36.25;97262.30;108989;1249;103637;-74
2023/05/29 12:10:32;;;;;;;;;;;;;;;27.62;35.93;97256.72;108790;1250;101360;-73
2023/05/29 12:13:01;;;;;;;;;;;;;;;27.54;36.49;97255.65;108976;1251;99987;-73
2023/05/29 12:15:29;;;;;;;;;;;;;;;27.53;36.63;97257.46;108792;1255;95751;-72
2023/05/29 12:17:57;;;;;;;;;;;;;;;27.47;36.37;97256.44;108989;1250;96342;-73
2023/05/29 12:20:27;;;;;;;;;;;;;;;27.40;36.19;97258.09;109007;1250;103603;-73
2023/05/29 12:22:59;;;;;;;;;;;;;;;27.33;36.73;97254.52;109034;1249;101420;-73
2023/05/29 12:25:28;;;;;;;;;;;;;;;27.31;37.08;97254.48;108969;1250;100348;-74
2023/05/29 12:27:57;;;;;;;;;;;;;;;27.28;36.38;97252.67;108894;1250;95599;-72
2023/05/29 12:30:25;;;;;;;;;;;;;;;27.13;35.94;97250.83;108969;1250;95720;-75
2023/05/29 12:32:54;;;;;;;;;;;;;;;27.01;36.34;97250.58;108968;1251;103313;-74
2023/05/29 12:35:25;;;;;;;;;;;;;;;26.97;36.21;97244.85;108970;1249;101024;-74
2023/05/29 12:37:58;;;;;;;;;;;;;;;26.95;36.02;97242.84;108994;1253;99886;-75
2023/05/29 12:40:30;;;;;;;;;;;;;;;26.76;35.84;97241.42;108965;1249;95623;-74